createdAt,value
2019-05-20T00:02:23.119Z,100407.67
2019-05-20T00:05:01.456Z,100418.00
2019-05-20T00:07:47.785Z,100425.25
2019-05-20T00:11:17.982Z,100435.80
2019-05-20T00:14:08.991Z,100448.13
2019-05-20T00:17:02.053Z,100448.00
2019-05-20T00:20:00.584Z,100439.20
2019-05-20T00:22:35.853Z,100437.45
2019-05-20T00:25:24.016Z,100452.80
2019-05-20T00:28:16.399Z,100456.84
2019-05-20T00:31:05.054Z,100457.63
2019-05-20T00:36:27.398Z,100443.19
2019-05-20T00:39:42.711Z,100438.05
2019-05-20T00:42:26.889Z,100432.75
2019-05-20T00:45:05.366Z,100437.70
2019-05-20T00:48:03.495Z,100434.98
2019-05-20T00:50:46.244Z,100433.52
2019-05-20T00:53:31.997Z,100439.38
2019-05-20T00:56:23.578Z,100412.38
2019-05-20T00:59:10.443Z,100438.27
2019-05-20T01:01:51.527Z,100432.70
2019-05-20T01:05:07.754Z,100420.09
2019-05-20T01:07:56.364Z,100425.20
2019-05-20T01:10:49.761Z,100427.17
2019-05-20T01:13:31.804Z,100433.27
2019-05-20T01:16:22.016Z,100428.49
2019-05-20T01:19:08.290Z,100419.98
2019-05-20T01:22:00.091Z,100422.96
2019-05-20T01:24:43.352Z,100428.84
2019-05-20T01:27:29.336Z,100420.06
2019-05-20T01:30:17.321Z,100416.16
2019-05-20T01:32:55.166Z,100416.84
2019-05-20T01:35:46.031Z,100410.09
2019-05-20T01:38:25.702Z,100417.30
2019-05-20T01:41:10.919Z,100407.30
2019-05-20T01:43:55.054Z,100404.15
2019-05-20T01:46:58.887Z,100394.02
2019-05-20T01:49:39.523Z,100395.84
2019-05-20T01:52:20.780Z,100397.89
2019-05-20T01:55:15.572Z,100407.89
2019-05-20T01:57:59.621Z,100402.25
2019-05-20T02:00:41.039Z,100392.05
2019-05-20T02:03:31.872Z,100393.77
2019-05-20T02:06:01.202Z,100392.12
2019-05-20T02:08:52.780Z,100398.23
2019-05-20T02:11:44.293Z,100399.86
2019-05-20T02:14:33.741Z,100413.54
2019-05-20T02:17:13.505Z,100407.11
2019-05-20T02:23:23.250Z,100411.53
2019-05-20T02:26:08.345Z,100415.09
2019-05-20T02:28:57.594Z,100409.97
2019-05-20T02:31:38.865Z,100410.88
2019-05-20T02:34:18.853Z,100413.16
2019-05-20T02:37:13.447Z,100410.44
2019-05-20T02:40:08.419Z,100410.48
2019-05-20T02:42:49.259Z,100408.25
2019-05-20T02:45:39.576Z,100407.25
2019-05-20T02:48:35.405Z,100404.14
2019-05-20T02:51:46.310Z,100402.00
2019-05-20T02:54:42.719Z,100408.48
2019-05-20T02:57:25.657Z,100388.95
2019-05-20T03:00:14.021Z,100398.63
2019-05-20T03:03:02.625Z,100392.23
2019-05-20T03:05:49.323Z,100391.49
2019-05-20T03:08:28.964Z,100406.37
2019-05-20T03:11:22.596Z,100411.24
2019-05-20T03:13:57.363Z,100422.06
2019-05-20T03:16:46.385Z,100426.09
2019-05-20T03:19:31.818Z,100419.38
2019-05-20T03:22:28.846Z,100421.05
2019-05-20T03:25:35.598Z,100418.47
2019-05-20T03:32:09.262Z,100417.77
2019-05-20T03:35:16.481Z,100415.18
2019-05-20T03:41:10.768Z,100417.16
2019-05-20T03:44:15.005Z,100412.75
2019-05-20T03:46:49.861Z,100411.74
2019-05-20T03:49:40.182Z,100404.16
2019-05-20T03:52:30.591Z,100408.69
2019-05-20T03:55:15.399Z,100397.54
2019-05-20T03:58:24.699Z,100405.33
2019-05-20T04:01:16.637Z,100410.41
2019-05-20T04:07:09.933Z,100422.09
2019-05-20T04:10:15.371Z,100423.23
2019-05-20T04:13:26.379Z,100410.08
2019-05-20T04:16:45.447Z,100420.09
2019-05-20T04:19:44.011Z,100418.64
2019-05-20T04:22:43.419Z,100417.48
2019-05-20T04:25:36.966Z,100417.06
2019-05-20T04:28:15.713Z,100398.59
2019-05-20T04:31:03.777Z,100398.59
2019-05-20T04:33:42.515Z,100413.94
2019-05-20T04:36:43.060Z,100413.94
2019-05-20T04:39:36.647Z,100415.61
2019-05-20T04:42:16.164Z,100404.58
2019-05-20T04:44:59.902Z,100404.39
2019-05-20T04:47:57.019Z,100404.59
2019-05-20T04:50:41.628Z,100409.53
2019-05-20T04:53:21.863Z,100411.67
2019-05-20T04:56:29.377Z,100419.30
2019-05-20T04:59:22.798Z,100408.72
2019-05-20T05:02:30.301Z,100408.72
2019-05-20T05:05:50.074Z,100407.89
2019-05-20T05:08:46.371Z,100411.26
2019-05-20T05:11:39.834Z,100405.70
2019-05-20T05:14:34.345Z,100410.61
2019-05-20T05:17:12.818Z,100405.04
2019-05-20T05:19:56.663Z,100402.23
2019-05-20T05:22:54.471Z,100402.23
2019-05-20T05:25:51.864Z,100414.25
2019-05-20T05:28:35.333Z,100430.27
2019-05-20T05:31:37.760Z,100427.31
2019-05-20T05:38:00.014Z,100420.37
2019-05-20T05:40:51.553Z,100421.36
2019-05-20T05:43:40.069Z,100421.36
2019-05-20T05:46:33.314Z,100420.22
2019-05-20T05:49:18.506Z,100421.02
2019-05-20T05:52:14.476Z,100419.70
2019-05-20T05:58:10.649Z,100434.05
2019-05-20T06:01:21.823Z,100438.14
2019-05-20T06:04:06.462Z,100435.59
2019-05-20T06:07:16.389Z,100430.40
2019-05-20T06:10:08.733Z,100427.23
2019-05-20T06:13:02.782Z,100428.52
2019-05-20T06:15:58.545Z,100433.89
2019-05-20T06:18:59.754Z,100427.41
2019-05-20T06:21:54.691Z,100427.23
2019-05-20T06:24:36.068Z,100422.97
2019-05-20T06:27:39.742Z,100423.66
2019-05-20T06:30:22.778Z,100422.82
2019-05-20T06:33:23.416Z,100427.70
2019-05-20T06:36:39.275Z,100430.39
2019-05-20T06:39:40.408Z,100423.23
2019-05-20T06:42:53.218Z,100418.02
2019-05-20T06:45:42.047Z,100419.03
2019-05-20T06:48:43.347Z,100411.20
2019-05-20T06:51:24.652Z,100407.77
2019-05-20T06:54:30.296Z,100421.70
2019-05-20T06:57:33.074Z,100421.61
2019-05-20T07:00:19.492Z,100413.56
2019-05-20T07:03:06.802Z,100421.39
2019-05-20T07:06:19.640Z,100416.55
2019-05-20T07:12:40.091Z,100415.68
2019-05-20T07:15:22.876Z,100418.33
2019-05-20T07:18:07.410Z,100413.59
2019-05-20T07:20:58.990Z,100413.95
2019-05-20T07:24:36.787Z,100408.53
2019-05-20T07:29:51.163Z,100415.53
2019-05-20T07:32:38.827Z,100422.34
2019-05-20T07:35:29.475Z,100424.46
2019-05-20T07:38:12.434Z,100422.71
2019-05-20T07:41:19.200Z,100426.97
2019-05-20T07:44:09.023Z,100416.99
2019-05-20T07:46:59.822Z,100411.59
2019-05-20T07:50:22.715Z,100413.07
2019-05-20T07:53:12.043Z,100423.76
2019-05-20T07:56:07.465Z,100421.45
2019-05-20T07:59:10.325Z,100413.34
2019-05-20T08:02:06.597Z,100409.10
2019-05-20T08:05:14.134Z,100413.97
2019-05-20T08:07:52.551Z,100404.13
2019-05-20T08:10:31.922Z,100312.58
2019-05-20T08:16:53.484Z,100406.05
2019-05-20T08:19:31.842Z,100416.42
2019-05-20T08:22:17.439Z,100409.16
2019-05-20T08:31:29.232Z,100406.56
2019-05-20T08:34:30.084Z,100407.41
2019-05-20T08:37:44.830Z,100313.72
2019-05-20T08:43:35.364Z,100405.92
2019-05-20T08:46:17.210Z,100416.64
2019-05-20T08:49:24.796Z,100420.67
2019-05-20T08:52:17.759Z,100411.27
2019-05-20T08:55:12.056Z,100411.40
2019-05-20T08:57:54.976Z,100326.83
2019-05-20T09:00:46.979Z,100418.96
2019-05-20T09:03:36.514Z,100425.44
2019-05-20T09:06:31.526Z,100425.32
2019-05-20T09:09:16.007Z,100420.14
2019-05-20T09:12:12.439Z,100423.58
2019-05-20T09:14:55.951Z,100417.11
2019-05-20T09:17:46.635Z,100419.34
2019-05-20T09:20:46.432Z,100417.55
2019-05-20T09:23:32.290Z,100423.77
2019-05-20T09:26:20.875Z,100419.99
2019-05-20T09:29:11.072Z,100423.36
2019-05-20T09:32:04.711Z,100418.45
2019-05-20T09:34:59.645Z,100421.74
2019-05-20T09:38:24.307Z,100422.23
2019-05-20T09:41:40.757Z,100426.68
2019-05-20T09:44:33.852Z,100423.80
2019-05-20T09:47:37.255Z,100414.08
2019-05-20T09:53:58.538Z,100423.36
2019-05-20T09:56:57.860Z,100419.80
2019-05-20T10:00:14.143Z,100430.09
2019-05-20T10:03:11.295Z,100429.15
2019-05-20T10:06:14.558Z,100431.50
2019-05-20T10:09:07.302Z,100424.20
2019-05-20T10:11:52.689Z,100425.67
2019-05-20T10:14:37.032Z,100428.58
2019-05-20T10:17:46.514Z,100429.52
2019-05-20T10:20:27.829Z,100436.17
2019-05-20T10:23:41.349Z,100431.45
2019-05-20T10:26:47.469Z,100431.25
2019-05-20T10:29:44.663Z,100417.50
2019-05-20T10:32:44.611Z,100420.48
2019-05-20T10:35:26.831Z,100410.66
2019-05-20T10:44:44.130Z,100426.52
2019-05-20T10:47:49.173Z,100419.61
2019-05-20T10:51:38.714Z,100410.88
2019-05-20T10:53:47.759Z,100422.92
2019-05-20T10:56:51.376Z,100419.16
2019-05-20T10:59:31.961Z,100417.91
2019-05-20T11:02:30.986Z,100409.98
2019-05-20T11:05:12.170Z,100422.29
2019-05-20T11:08:02.725Z,100418.61
2019-05-20T11:10:58.578Z,100404.13
2019-05-20T11:14:02.107Z,100414.00
2019-05-20T11:16:39.297Z,100405.72
2019-05-20T11:22:34.550Z,100388.41
2019-05-20T11:25:21.495Z,100392.50
2019-05-20T11:31:00.099Z,100393.58
2019-05-20T11:33:29.703Z,100374.88
2019-05-20T11:35:59.498Z,100373.85
2019-05-20T11:38:29.582Z,100382.69
2019-05-20T11:40:59.347Z,100379.23
2019-05-20T11:43:29.146Z,100379.16
2019-05-20T11:45:59.027Z,100377.29
2019-05-20T11:48:28.879Z,100387.48
2019-05-20T11:50:58.777Z,100376.80
2019-05-20T11:53:28.729Z,100382.87
2019-05-20T11:55:58.608Z,100379.13
2019-05-20T11:58:28.441Z,100386.80
2019-05-20T12:00:58.670Z,100388.46
2019-05-20T12:03:28.554Z,100382.95
2019-05-20T12:05:58.230Z,100379.40
2019-05-20T12:08:28.135Z,100373.75
2019-05-20T12:10:57.952Z,100374.00
2019-05-20T12:13:27.832Z,100365.50
2019-05-20T12:15:57.746Z,100364.57
2019-05-20T12:18:27.684Z,100365.81
2019-05-20T12:20:57.568Z,100367.08
2019-05-20T12:23:27.285Z,100369.39
2019-05-20T12:25:56.959Z,100368.81
2019-05-20T12:28:27.033Z,100368.47
2019-05-20T12:30:56.828Z,100378.38
2019-05-20T12:33:26.609Z,100370.84
2019-05-20T12:35:56.289Z,100358.25
2019-05-20T12:38:25.984Z,100357.48
2019-05-20T12:40:55.945Z,100349.24
2019-05-20T12:43:25.796Z,100355.98
2019-05-20T12:45:55.419Z,100348.25
2019-05-20T12:48:25.412Z,100338.36
2019-05-20T12:50:55.260Z,100347.02
2019-05-20T12:53:25.069Z,100333.70
2019-05-20T12:55:55.033Z,100327.60
2019-05-20T12:58:25.032Z,100332.23
2019-05-20T13:00:54.736Z,100332.94
2019-05-20T13:03:25.908Z,100331.33
2019-05-20T13:05:55.676Z,100327.45
2019-05-20T13:08:25.489Z,100324.92
2019-05-20T13:10:56.565Z,100331.51
2019-05-20T13:13:26.446Z,100336.88
2019-05-20T13:15:56.355Z,100320.09
2019-05-20T13:18:26.412Z,100316.91
2019-05-20T13:20:56.273Z,100311.29
2019-05-20T13:23:26.116Z,100312.27
2019-05-20T13:25:55.986Z,100314.95
2019-05-20T13:28:26.015Z,100312.80
2019-05-20T13:30:55.989Z,100311.66
2019-05-20T13:33:25.803Z,100295.88
2019-05-20T13:35:56.982Z,100299.28
2019-05-20T13:38:26.850Z,100289.15
2019-05-20T13:40:56.765Z,100278.34
2019-05-20T13:43:26.644Z,100279.98
2019-05-20T13:45:56.517Z,100282.36
2019-05-20T13:48:26.330Z,100286.02
2019-05-20T13:50:56.680Z,100286.12
2019-05-20T13:53:26.582Z,100281.72
2019-05-20T13:55:56.371Z,100285.63
2019-05-20T13:58:25.926Z,100282.20
2019-05-20T14:00:55.713Z,100277.58
2019-05-20T14:03:25.498Z,100283.71
2019-05-20T14:05:55.490Z,100281.79
2019-05-20T14:08:25.230Z,100281.02
2019-05-20T14:11:04.462Z,100266.61
2019-05-20T14:13:26.549Z,100278.53
2019-05-20T14:15:56.315Z,100267.14
2019-05-20T14:18:26.150Z,100269.13
2019-05-20T14:20:57.323Z,100273.63
2019-05-20T14:23:27.195Z,100269.37
2019-05-20T14:25:57.052Z,100267.86
2019-05-20T14:28:26.871Z,100265.47
2019-05-20T14:30:56.768Z,100260.66
2019-05-20T14:33:26.717Z,100255.03
2019-05-20T14:35:56.574Z,100248.42
2019-05-20T14:38:26.590Z,100246.66
2019-05-20T14:40:56.466Z,100239.45
2019-05-20T14:43:26.329Z,100231.13
2019-05-20T14:45:56.006Z,100235.91
2019-05-20T14:48:25.789Z,100242.54
2019-05-20T14:50:55.799Z,100236.25
2019-05-20T14:53:25.597Z,100237.48
2019-05-20T14:55:55.539Z,100233.20
2019-05-20T14:58:25.420Z,100226.87
2019-05-20T15:00:55.331Z,100237.79
2019-05-20T15:03:25.238Z,100231.53
2019-05-20T15:05:54.890Z,100229.22
2019-05-20T15:08:24.960Z,100225.44
2019-05-20T15:10:54.947Z,100219.87
2019-05-20T15:13:24.817Z,100216.70
2019-05-20T15:15:54.627Z,100209.20
2019-05-20T15:18:24.713Z,100202.15
2019-05-20T15:20:54.281Z,100204.73
2019-05-20T15:23:24.116Z,100198.86
2019-05-20T15:25:55.346Z,100192.92
2019-05-20T15:28:25.264Z,100212.36
2019-05-20T15:30:55.431Z,100194.86
2019-05-20T15:33:25.301Z,100186.33
2019-05-20T15:35:55.275Z,100186.40
2019-05-20T15:38:25.144Z,100187.16
2019-05-20T15:40:55.062Z,100183.84
2019-05-20T15:43:24.996Z,100186.03
2019-05-20T15:45:54.885Z,100177.04
2019-05-20T15:48:25.652Z,100178.42
2019-05-20T15:50:55.422Z,100177.45
2019-05-20T15:53:25.359Z,100177.83
2019-05-20T15:55:55.200Z,100172.95
2019-05-20T15:58:25.086Z,100182.58
2019-05-20T16:00:54.871Z,100198.70
2019-05-20T16:03:24.765Z,100210.73
2019-05-20T16:05:54.629Z,100222.09
2019-05-20T16:08:24.749Z,100219.20
2019-05-20T16:10:54.614Z,100224.53
2019-05-20T16:13:24.358Z,100222.91
2019-05-20T16:15:54.231Z,100212.88
2019-05-20T16:18:24.015Z,100230.94
2019-05-20T16:20:53.933Z,100231.41
2019-05-20T16:23:24.110Z,100229.98
2019-05-20T16:25:54.075Z,100242.95
2019-05-20T16:28:23.859Z,100238.41
2019-05-20T16:30:53.638Z,100222.61
2019-05-20T16:33:23.312Z,100230.97
2019-05-20T16:35:52.996Z,100229.05
2019-05-20T16:38:22.934Z,100230.28
2019-05-20T16:40:52.840Z,100227.64
2019-05-20T16:43:22.650Z,100237.34
2019-05-20T16:45:52.410Z,100234.56
2019-05-20T16:48:22.300Z,100238.37
2019-05-20T16:50:52.120Z,100246.08
2019-05-20T16:53:21.862Z,100237.23
2019-05-20T16:55:52.867Z,100248.13
2019-05-20T16:58:22.846Z,100244.33
2019-05-20T17:00:52.704Z,100246.81
2019-05-20T17:03:22.524Z,100241.88
2019-05-20T17:05:52.491Z,100244.60
2019-05-20T17:08:22.329Z,100250.75
2019-05-20T17:10:52.348Z,100242.94
2019-05-20T17:13:22.218Z,100240.00
2019-05-20T17:15:52.024Z,100240.16
2019-05-20T17:18:21.823Z,100240.01
2019-05-20T17:20:51.928Z,100240.77
2019-05-20T17:23:21.745Z,100250.45
2019-05-20T17:25:51.719Z,100261.47
2019-05-20T17:28:21.579Z,100264.11
2019-05-20T17:30:51.504Z,100270.82
2019-05-20T17:33:21.494Z,100279.40
2019-05-20T17:35:51.368Z,100285.13
2019-05-20T17:38:21.169Z,100292.11
2019-05-20T17:40:51.097Z,100306.64
2019-05-20T17:43:20.985Z,100304.64
2019-05-20T17:45:50.898Z,100297.81
2019-05-20T17:48:21.958Z,100276.32
2019-05-20T17:50:52.196Z,100275.24
2019-05-20T17:53:21.887Z,100272.62
2019-05-20T17:55:52.052Z,100282.45
2019-05-20T17:58:21.913Z,100290.98
2019-05-20T18:00:51.856Z,100308.04
2019-05-20T18:03:22.012Z,100315.47
2019-05-20T18:05:51.752Z,100342.41
2019-05-20T18:08:24.576Z,100362.39
2019-05-20T18:10:54.572Z,100370.92
2019-05-20T18:13:24.384Z,100369.92
2019-05-20T18:15:54.311Z,100395.30
2019-05-20T18:18:25.178Z,100395.30
2019-05-20T18:20:56.585Z,100398.23
2019-05-20T18:23:26.739Z,100413.19
2019-05-20T18:25:57.786Z,100409.95
2019-05-20T18:28:27.687Z,100413.75
2019-05-20T18:30:57.661Z,100403.91
2019-05-20T18:33:27.421Z,100379.49
2019-05-20T18:35:57.223Z,100400.71
2019-05-20T18:38:27.030Z,100404.86
2019-05-20T18:40:56.744Z,100410.91
2019-05-20T18:43:26.612Z,100423.96
2019-05-20T18:45:56.480Z,100434.35
2019-05-20T18:48:26.499Z,100443.45
2019-05-20T18:50:57.570Z,100441.55
2019-05-20T18:53:27.356Z,100453.84
2019-05-20T18:55:57.221Z,100455.55
2019-05-20T18:58:28.023Z,100462.87
2019-05-20T19:00:57.762Z,100473.94
2019-05-20T19:03:28.478Z,100479.77
2019-05-20T19:05:58.687Z,100485.80
2019-05-20T19:08:28.532Z,100494.11
2019-05-20T19:10:58.733Z,100496.09
2019-05-20T19:13:28.535Z,100497.42
2019-05-20T19:15:58.401Z,100491.84
2019-05-20T19:18:28.261Z,100494.80
2019-05-20T19:20:58.181Z,100509.69
2019-05-20T19:23:29.135Z,100509.69
2019-05-20T19:25:59.043Z,100505.74
2019-05-20T19:28:29.074Z,100513.18
2019-05-20T19:30:58.974Z,100516.66
2019-05-20T19:33:28.776Z,100526.05
2019-05-20T19:35:58.643Z,100526.05
2019-05-20T19:38:32.839Z,100525.58
2019-05-20T19:40:59.863Z,100536.49
2019-05-20T19:43:29.756Z,100537.78
2019-05-20T19:45:59.597Z,100537.78
2019-05-20T19:48:29.355Z,100542.26
2019-05-20T19:50:59.266Z,100550.33
2019-05-20T19:53:29.038Z,100561.68
2019-05-20T19:55:58.879Z,100561.68
2019-05-20T19:58:28.825Z,100561.56
2019-05-20T20:00:58.695Z,100561.56
2019-05-20T20:03:28.627Z,100568.61
2019-05-20T20:05:58.800Z,100563.66
2019-05-20T20:08:28.771Z,100557.55
2019-05-20T20:10:58.659Z,100557.55
2019-05-20T20:13:28.651Z,100571.24
2019-05-20T20:15:58.401Z,100561.22
2019-05-20T20:18:28.435Z,100573.78
2019-05-20T20:20:58.317Z,100573.78
2019-05-20T20:23:28.046Z,100576.91
2019-05-20T20:25:57.938Z,100576.42
2019-05-20T20:28:27.692Z,100578.72
2019-05-20T20:30:57.516Z,100572.23
2019-05-20T20:33:27.485Z,100593.02
2019-05-20T20:35:58.629Z,100589.84
2019-05-20T20:38:28.384Z,100587.86
2019-05-20T20:40:58.337Z,100590.52
2019-05-20T20:43:31.982Z,100592.48
2019-05-20T20:46:00.200Z,100605.34
2019-05-20T20:48:30.003Z,100605.34
2019-05-20T20:50:59.699Z,100608.79
2019-05-20T20:53:29.548Z,100620.91
2019-05-20T20:55:59.223Z,100620.73
2019-05-20T20:58:29.039Z,100618.83
2019-05-20T21:00:59.003Z,100610.92
2019-05-20T21:03:28.866Z,100606.19
2019-05-20T21:05:58.804Z,100611.78
2019-05-20T21:08:28.628Z,100609.97
2019-05-20T21:10:58.531Z,100607.02
2019-05-20T21:13:28.764Z,100611.46
2019-05-20T21:15:58.730Z,100603.45
2019-05-20T21:18:30.916Z,100603.45
2019-05-20T21:21:00.645Z,100600.07
2019-05-20T21:23:30.525Z,100614.02
2019-05-20T21:26:00.393Z,100617.80
2019-05-20T21:28:30.406Z,100619.53
2019-05-20T21:31:00.319Z,100614.83
2019-05-20T21:33:30.153Z,100614.20
2019-05-20T21:36:00.083Z,100617.84
2019-05-20T21:38:29.984Z,100618.73
2019-05-20T21:40:59.758Z,100615.92
2019-05-20T21:43:29.608Z,100617.59
2019-05-20T21:45:59.517Z,100620.22
2019-05-20T21:48:29.552Z,100615.92
2019-05-20T21:50:59.356Z,100618.88
2019-05-20T21:53:30.512Z,100619.02
2019-05-20T21:56:00.408Z,100616.84
2019-05-20T21:58:30.338Z,100618.19
2019-05-20T22:01:00.535Z,100616.31
2019-05-20T22:03:30.263Z,100621.03
2019-05-20T22:06:00.070Z,100628.72
2019-05-20T22:08:29.918Z,100628.72
2019-05-20T22:10:59.616Z,100637.50
2019-05-20T22:13:29.404Z,100639.69
2019-05-20T22:15:59.434Z,100639.69
2019-05-20T22:18:29.245Z,100637.55
2019-05-20T22:21:00.414Z,100645.54
2019-05-20T22:23:49.088Z,100645.19
2019-05-20T22:26:18.798Z,100646.33
2019-05-20T22:28:48.693Z,100639.89
2019-05-20T22:31:18.604Z,100636.25
2019-05-20T22:33:48.464Z,100639.89
2019-05-20T22:36:18.336Z,100644.55
2019-05-20T22:38:48.258Z,100649.03
2019-05-20T22:41:18.287Z,100643.20
2019-05-20T22:43:48.101Z,100649.16
2019-05-20T22:46:17.987Z,100642.32
2019-05-20T22:48:47.960Z,100643.24
2019-05-20T22:51:17.816Z,100640.78
2019-05-20T22:53:47.436Z,100648.50
2019-05-20T22:56:18.513Z,100658.54
2019-05-20T22:58:48.204Z,100662.26
2019-05-20T23:01:18.096Z,100665.33
2019-05-20T23:03:56.375Z,100664.89
2019-05-20T23:06:20.287Z,100660.37
2019-05-20T23:08:50.132Z,100668.14
2019-05-20T23:11:20.093Z,100663.75
2019-05-20T23:13:49.940Z,100666.91
2019-05-20T23:16:19.860Z,100665.77
2019-05-20T23:18:49.844Z,100668.53
2019-05-20T23:21:19.750Z,100671.98
2019-05-20T23:23:49.665Z,100666.55
2019-05-20T23:26:19.577Z,100675.95
2019-05-20T23:28:49.449Z,100666.32
2019-05-20T23:31:19.387Z,100670.97
2019-05-20T23:33:49.222Z,100667.05
2019-05-20T23:36:18.882Z,100675.20
2019-05-20T23:38:48.781Z,100672.98
2019-05-20T23:41:19.008Z,100665.64
2019-05-20T23:43:49.440Z,100666.98
2019-05-20T23:46:19.340Z,100657.93
2019-05-20T23:48:49.308Z,100663.33
2019-05-20T23:51:19.340Z,100656.87
2019-05-20T23:53:49.161Z,100656.78
2019-05-20T23:56:18.968Z,100665.20
2019-05-20T23:58:48.853Z,100662.16
